sensor_id;sensor_type;location;lat;lon;timestamp;pressure;altitude;pressure_sealevel;temperature;humidity
12207;BME280;6166;42.806;23.408;2022-07-23T00:01:29;71984.13;;;-144.35;54.80
12207;BME280;6166;42.806;23.408;2022-07-23T00:03:56;71988.25;;;-144.35;54.77
12207;BME280;6166;42.806;23.408;2022-07-23T00:06:23;71990.34;;;-144.35;54.76
12207;BME280;6166;42.806;23.408;2022-07-23T00:08:50;71998.59;;;-144.35;54.87
12207;BME280;6166;42.806;23.408;2022-07-23T00:11:17;72004.78;;;-144.35;55.01
12207;BME280;6166;42.806;23.408;2022-07-23T00:13:46;72015.09;;;-144.35;55.29
12207;BME280;6166;42.806;23.408;2022-07-23T00:16:12;72027.50;;;-144.35;55.43
12207;BME280;6166;42.806;23.408;2022-07-23T00:18:39;72031.63;;;-144.35;55.59
12207;BME280;6166;42.806;23.408;2022-07-23T00:21:06;72029.56;;;-144.35;55.51
12207;BME280;6166;42.806;23.408;2022-07-23T00:23:33;72031.63;;;-144.35;55.76
12207;BME280;6166;42.806;23.408;2022-07-23T00:26:00;72048.16;;;-144.35;55.85
12207;BME280;6166;42.806;23.408;2022-07-23T00:28:27;72044.03;;;-144.35;55.95
12207;BME280;6166;42.806;23.408;2022-07-23T00:30:55;72044.03;;;-144.35;56.10
12207;BME280;6166;42.806;23.408;2022-07-23T00:33:21;72048.16;;;-144.35;56.08
12207;BME280;6166;42.806;23.408;2022-07-23T00:35:48;72044.03;;;-144.35;56.20
12207;BME280;6166;42.806;23.408;2022-07-23T00:38:15;72048.16;;;-144.35;56.26
12207;BME280;6166;42.806;23.408;2022-07-23T00:40:41;72044.03;;;-144.35;56.42
12207;BME280;6166;42.806;23.408;2022-07-23T00:43:08;72052.28;;;-144.35;56.26
12207;BME280;6166;42.806;23.408;2022-07-23T00:45:35;72056.41;;;-144.35;56.33
12207;BME280;6166;42.806;23.408;2022-07-23T00:48:03;72048.16;;;-144.35;56.42
12207;BME280;6166;42.806;23.408;2022-07-23T00:50:30;72062.59;;;-144.35;56.78
12207;BME280;6166;42.806;23.408;2022-07-23T00:52:57;72072.94;;;-144.35;56.94
12207;BME280;6166;42.806;23.408;2022-07-23T00:55:24;72081.19;;;-144.35;57.09
12207;BME280;6166;42.806;23.408;2022-07-23T00:57:52;72083.25;;;-144.35;57.26
12207;BME280;6166;42.806;23.408;2022-07-23T01:00:19;72091.50;;;-144.35;57.45
12207;BME280;6166;42.806;23.408;2022-07-23T01:02:46;72093.56;;;-144.35;57.44
12207;BME280;6166;42.806;23.408;2022-07-23T01:05:15;72103.91;;;-144.35;58.05
12207;BME280;6166;42.806;23.408;2022-07-23T01:07:43;72110.09;;;-144.35;57.97
12207;BME280;6166;42.806;23.408;2022-07-23T01:10:10;72112.16;;;-144.35;57.86
12207;BME280;6166;42.806;23.408;2022-07-23T01:12:51;72118.34;;;-144.35;58.26
12207;BME280;6166;42.806;23.408;2022-07-23T01:15:18;72130.75;;;-144.35;58.47
12207;BME280;6166;42.806;23.408;2022-07-23T01:17:44;72130.75;;;-144.35;58.64
12207;BME280;6166;42.806;23.408;2022-07-23T01:20:11;72143.13;;;-144.35;59.02
12207;BME280;6166;42.806;23.408;2022-07-23T01:22:39;72141.06;;;-144.35;59.07
12207;BME280;6166;42.806;23.408;2022-07-23T01:25:07;72145.19;;;-144.35;59.31
12207;BME280;6166;42.806;23.408;2022-07-23T01:27:34;72159.66;;;-144.35;59.78
12207;BME280;6166;42.806;23.408;2022-07-23T01:30:01;72180.31;;;-144.35;60.23
12207;BME280;6166;42.806;23.408;2022-07-23T01:32:28;72184.44;;;-144.35;60.69
12207;BME280;6166;42.806;23.408;2022-07-23T01:34:55;72188.56;;;-144.35;60.92
12207;BME280;6166;42.806;23.408;2022-07-23T01:37:22;72198.88;;;-144.35;61.31
12207;BME280;6166;42.806;23.408;2022-07-23T01:39:50;72211.28;;;-144.35;61.58
12207;BME280;6166;42.806;23.408;2022-07-23T01:42:17;72209.22;;;-144.35;62.04
12207;BME280;6166;42.806;23.408;2022-07-23T01:44:44;72219.53;;;-144.35;62.23
12207;BME280;6166;42.806;23.408;2022-07-23T01:47:10;72229.88;;;-144.35;62.76
12207;BME280;6166;42.806;23.408;2022-07-23T01:49:37;72223.66;;;-144.35;62.82
12207;BME280;6166;42.806;23.408;2022-07-23T01:52:04;72229.88;;;-144.35;63.03
12207;BME280;6166;42.806;23.408;2022-07-23T01:54:34;72234.00;;;-144.35;63.02
12207;BME280;6166;42.806;23.408;2022-07-23T01:57:02;72240.19;;;-144.35;62.93
12207;BME280;6166;42.806;23.408;2022-07-23T01:59:30;72238.13;;;-144.35;62.99
12207;BME280;6166;42.806;23.408;2022-07-23T02:01:57;72229.88;;;-144.35;63.00
12207;BME280;6166;42.806;23.408;2022-07-23T02:04:24;72229.88;;;-144.35;62.75
12207;BME280;6166;42.806;23.408;2022-07-23T02:06:52;72234.00;;;-144.35;62.83
12207;BME280;6166;42.806;23.408;2022-07-23T02:09:18;72234.00;;;-144.35;62.86
12207;BME280;6166;42.806;23.408;2022-07-23T02:11:45;72234.00;;;-144.35;63.36
12207;BME280;6166;42.806;23.408;2022-07-23T02:14:14;72229.88;;;-144.35;63.47
12207;BME280;6166;42.806;23.408;2022-07-23T02:16:40;72238.13;;;-144.35;63.41
12207;BME280;6166;42.806;23.408;2022-07-23T02:19:07;72242.25;;;-144.35;63.69
12207;BME280;6166;42.806;23.408;2022-07-23T02:21:34;72238.13;;;-144.35;63.80
12207;BME280;6166;42.806;23.408;2022-07-23T02:24:01;72238.13;;;-144.35;63.74
12207;BME280;6166;42.806;23.408;2022-07-23T02:26:27;72246.38;;;-144.35;63.93
12207;BME280;6166;42.806;23.408;2022-07-23T02:32:04;72264.97;;;-144.35;64.02
12207;BME280;6166;42.806;23.408;2022-07-23T02:34:30;72271.16;;;-144.35;64.07
12207;BME280;6166;42.806;23.408;2022-07-23T02:36:57;72258.78;;;-144.35;64.04
12207;BME280;6166;42.806;23.408;2022-07-23T02:39:24;72254.66;;;-144.35;63.96
12207;BME280;6166;42.806;23.408;2022-07-23T02:41:51;72246.38;;;-144.35;63.83
12207;BME280;6166;42.806;23.408;2022-07-23T02:44:17;72242.25;;;-144.35;63.99
12207;BME280;6166;42.806;23.408;2022-07-23T02:46:44;72240.19;;;-144.35;63.21
12207;BME280;6166;42.806;23.408;2022-07-23T02:49:12;72234.00;;;-144.35;63.11
12207;BME280;6166;42.806;23.408;2022-07-23T02:51:39;72234.00;;;-144.35;63.01
12207;BME280;6166;42.806;23.408;2022-07-23T02:54:05;72234.00;;;-144.35;62.77
12207;BME280;6166;42.806;23.408;2022-07-23T02:56:32;72258.78;;;-144.35;63.38
12207;BME280;6166;42.806;23.408;2022-07-23T02:58:59;72271.16;;;-144.35;63.76
12207;BME280;6166;42.806;23.408;2022-07-23T03:01:25;72258.78;;;-144.35;63.85
12207;BME280;6166;42.806;23.408;2022-07-23T03:03:52;72256.72;;;-144.35;63.00
12207;BME280;6166;42.806;23.408;2022-07-23T03:06:20;72271.16;;;-144.35;63.82
12207;BME280;6166;42.806;23.408;2022-07-23T03:08:47;72271.16;;;-144.35;64.11
12207;BME280;6166;42.806;23.408;2022-07-23T03:11:14;72269.09;;;-144.35;64.21
12207;BME280;6166;42.806;23.408;2022-07-23T03:13:41;72271.16;;;-144.35;64.21
12207;BME280;6166;42.806;23.408;2022-07-23T03:16:10;72279.44;;;-144.35;64.42
12207;BME280;6166;42.806;23.408;2022-07-23T03:18:37;72287.69;;;-144.35;64.55
12207;BME280;6166;42.806;23.408;2022-07-23T03:21:03;72287.69;;;-144.35;64.67
12207;BME280;6166;42.806;23.408;2022-07-23T03:23:31;72289.75;;;-144.35;65.01
12207;BME280;6166;42.806;23.408;2022-07-23T03:25:58;72283.56;;;-144.35;64.79
12207;BME280;6166;42.806;23.408;2022-07-23T03:28:25;72277.34;;;-144.35;64.62
12207;BME280;6166;42.806;23.408;2022-07-23T03:30:52;72279.44;;;-144.35;64.34
12207;BME280;6166;42.806;23.408;2022-07-23T03:33:19;72279.44;;;-144.35;64.44
12207;BME280;6166;42.806;23.408;2022-07-23T03:35:47;72279.44;;;-144.35;64.56
12207;BME280;6166;42.806;23.408;2022-07-23T03:38:14;72281.50;;;-144.35;64.61
12207;BME280;6166;42.806;23.408;2022-07-23T03:40:43;72283.56;;;-144.35;64.57
12207;BME280;6166;42.806;23.408;2022-07-23T03:43:09;72287.69;;;-144.35;64.58
12207;BME280;6166;42.806;23.408;2022-07-23T03:45:36;72285.63;;;-144.35;64.67
12207;BME280;6166;42.806;23.408;2022-07-23T03:48:03;72291.81;;;-144.35;64.86
12207;BME280;6166;42.806;23.408;2022-07-23T03:50:30;72300.06;;;-144.35;64.79
12207;BME280;6166;42.806;23.408;2022-07-23T03:52:56;72291.81;;;-144.35;64.71
12207;BME280;6166;42.806;23.408;2022-07-23T03:55:23;72279.44;;;-144.35;64.78
12207;BME280;6166;42.806;23.408;2022-07-23T03:57:51;72279.44;;;-144.35;65.01
12207;BME280;6166;42.806;23.408;2022-07-23T04:00:18;72275.28;;;-144.35;64.99
12207;BME280;6166;42.806;23.408;2022-07-23T04:02:45;72262.91;;;-144.35;65.16
12207;BME280;6166;42.806;23.408;2022-07-23T04:05:11;72260.84;;;-144.35;64.99
12207;BME280;6166;42.806;23.408;2022-07-23T04:07:38;72254.66;;;-144.35;64.93
12207;BME280;6166;42.806;23.408;2022-07-23T04:10:06;72258.78;;;-144.35;65.22
12207;BME280;6166;42.806;23.408;2022-07-23T04:12:33;72250.50;;;-144.35;65.02
12207;BME280;6166;42.806;23.408;2022-07-23T04:15:01;72242.25;;;-144.35;64.68
12207;BME280;6166;42.806;23.408;2022-07-23T04:17:28;72234.00;;;-144.35;64.54
12207;BME280;6166;42.806;23.408;2022-07-23T04:19:55;72223.66;;;-144.35;64.24
12207;BME280;6166;42.806;23.408;2022-07-23T04:22:21;72217.47;;;-144.35;64.15
12207;BME280;6166;42.806;23.408;2022-07-23T04:24:48;72209.22;;;-144.35;63.87
12207;BME280;6166;42.806;23.408;2022-07-23T04:27:15;72198.88;;;-144.35;63.70
12207;BME280;6166;42.806;23.408;2022-07-23T04:29:42;72190.63;;;-144.35;64.04
12207;BME280;6166;42.806;23.408;2022-07-23T04:32:10;72180.31;;;-144.35;64.29
12207;BME280;6166;42.806;23.408;2022-07-23T04:34:37;72172.03;;;-144.35;64.58
12207;BME280;6166;42.806;23.408;2022-07-23T04:37:04;72172.03;;;-144.35;64.43
12207;BME280;6166;42.806;23.408;2022-07-23T04:39:30;72153.47;;;-144.35;64.00
12207;BME280;6166;42.806;23.408;2022-07-23T04:41:57;72143.13;;;-144.35;63.39
12207;BME280;6166;42.806;23.408;2022-07-23T04:44:24;72143.13;;;-144.35;63.98
12207;BME280;6166;42.806;23.408;2022-07-23T04:46:51;72118.34;;;-144.35;63.73
12207;BME280;6166;42.806;23.408;2022-07-23T04:49:23;72103.91;;;-144.35;64.30
12207;BME280;6166;42.806;23.408;2022-07-23T04:51:49;72095.63;;;-144.35;63.33
12207;BME280;6166;42.806;23.408;2022-07-23T04:54:16;72108.03;;;-144.35;61.51
12207;BME280;6166;42.806;23.408;2022-07-23T04:56:43;72101.84;;;-144.35;61.25
12207;BME280;6166;42.806;23.408;2022-07-23T04:59:10;72089.44;;;-144.35;61.79
12207;BME280;6166;42.806;23.408;2022-07-23T05:14:29;141667.06;;;18.04;0.00
12207;BME280;6166;42.806;23.408;2022-07-23T05:16:56;141766.09;;;18.14;0.00
12207;BME280;6166;42.806;23.408;2022-07-23T05:19:23;141870.84;;;18.24;0.00
12207;BME280;6166;42.806;23.408;2022-07-23T05:21:50;141989.34;;;18.36;5.13
12207;BME280;6166;42.806;23.408;2022-07-23T05:24:17;142083.44;;;18.46;27.25
12207;BME280;6166;42.806;23.408;2022-07-23T05:26:43;142087.44;;;18.46;24.08
12207;BME280;6166;42.806;23.408;2022-07-23T05:29:10;142030.41;;;18.40;13.13
12207;BME280;6166;42.806;23.408;2022-07-23T05:31:38;142043.78;;;18.41;15.08
12207;BME280;6166;42.806;23.408;2022-07-23T05:34:05;141959.59;;;18.33;0.00
12207;BME280;6166;42.806;23.408;2022-07-23T05:36:32;141866.34;;;18.23;0.00
12207;BME280;6166;42.806;23.408;2022-07-23T05:38:59;141854.94;;;18.23;0.00
12207;BME280;6166;42.806;23.408;2022-07-23T05:41:25;141645.19;;;18.01;0.00
12207;BME280;6166;42.806;23.408;2022-07-23T05:43:52;141607.63;;;17.97;0.00
12207;BME280;6166;42.806;23.408;2022-07-23T05:46:19;141692.09;;;18.06;0.00
12207;BME280;6166;42.806;23.408;2022-07-23T05:48:47;141538.06;;;17.91;0.00
12207;BME280;6166;42.806;23.408;2022-07-23T05:51:19;141303.59;;;17.66;0.00
12207;BME280;6166;42.806;23.408;2022-07-23T05:53:46;141218.47;;;17.57;0.00
12207;BME280;6166;42.806;23.408;2022-07-23T05:56:13;141169.81;;;17.52;0.00
12207;BME280;6166;42.806;23.408;2022-07-23T05:58:39;140963.66;;;17.29;0.00
12207;BME280;6166;42.806;23.408;2022-07-23T06:01:06;140787.22;;;17.10;0.00
12207;BME280;6166;42.806;23.408;2022-07-23T06:03:33;140708.47;;;17.04;0.00
12207;BME280;6166;42.806;23.408;2022-07-23T06:06:01;140431.38;;;16.71;0.00
12207;BME280;6166;42.806;23.408;2022-07-23T06:08:28;140331.47;;;16.59;0.00
12207;BME280;6166;42.806;23.408;2022-07-23T06:10:54;140220.19;;;16.46;0.00
12207;BME280;6166;42.806;23.408;2022-07-23T06:13:21;140205.50;;;16.45;0.00
12207;BME280;6166;42.806;23.408;2022-07-23T06:15:48;140081.75;;;16.30;0.00
12207;BME280;6166;42.806;23.408;2022-07-23T06:18:15;140101.88;;;16.32;0.00
12207;BME280;6166;42.806;23.408;2022-07-23T06:20:42;140047.91;;;16.26;0.00
12207;BME280;6166;42.806;23.408;2022-07-23T06:23:10;140038.91;;;16.25;0.00
12207;BME280;6166;42.806;23.408;2022-07-23T06:25:37;139989.53;;;16.19;0.00
12207;BME280;6166;42.806;23.408;2022-07-23T06:28:04;139722.78;;;15.87;100.00
12207;BME280;6166;42.806;23.408;2022-07-23T06:30:31;139584.59;;;15.70;100.00
12207;BME280;6166;42.806;23.408;2022-07-23T06:32:58;139361.44;;;15.40;100.00
12207;BME280;6166;42.806;23.408;2022-07-23T06:35:25;139288.47;;;15.32;100.00
12207;BME280;6166;42.806;23.408;2022-07-23T06:37:52;139266.31;;;15.29;100.00
12207;BME280;6166;42.806;23.408;2022-07-23T06:40:20;139078.84;;;15.03;100.00
12207;BME280;6166;42.806;23.408;2022-07-23T06:42:47;139067.34;;;15.01;100.00
12207;BME280;6166;42.806;23.408;2022-07-23T06:45:18;139048.91;;;14.99;100.00
12207;BME280;6166;42.806;23.408;2022-07-23T06:47:45;138880.63;;;14.75;100.00
12207;BME280;6166;42.806;23.408;2022-07-23T06:50:12;138748.22;;;14.57;100.00
12207;BME280;6166;42.806;23.408;2022-07-23T06:52:39;138748.41;;;14.58;100.00
12207;BME280;6166;42.806;23.408;2022-07-23T06:55:06;138656.38;;;14.44;100.00
12207;BME280;6166;42.806;23.408;2022-07-23T06:57:34;138484.47;;;14.19;84.34
12207;BME280;6166;42.806;23.408;2022-07-23T07:00:02;138430.22;;;14.11;65.65
12207;BME280;6166;42.806;23.408;2022-07-23T07:02:29;138441.91;;;14.13;69.31
12207;BME280;6166;42.806;23.408;2022-07-23T07:04:56;138384.56;;;14.04;48.59
12207;BME280;6166;42.806;23.408;2022-07-23T07:07:22;138303.94;;;13.91;19.09
12207;BME280;6166;42.806;23.408;2022-07-23T07:09:49;138253.78;;;13.85;4.42
12207;BME280;6166;42.806;23.408;2022-07-23T07:12:16;138071.59;;;13.54;0.00
12207;BME280;6166;42.806;23.408;2022-07-23T07:14:44;138012.06;;;13.45;0.00
12207;BME280;6166;42.806;23.408;2022-07-23T07:17:11;138141.41;;;13.66;0.00
12207;BME280;6166;42.806;23.408;2022-07-23T07:19:38;137936.03;;;13.32;0.00
12207;BME280;6166;42.806;23.408;2022-07-23T07:22:04;137769.84;;;13.03;0.00
12207;BME280;6166;42.806;23.408;2022-07-23T07:24:31;137712.66;;;12.93;0.00
12207;BME280;6166;42.806;23.408;2022-07-23T07:26:58;137740.59;;;12.99;0.00
12207;BME280;6166;42.806;23.408;2022-07-23T07:29:25;137634.59;;;12.80;0.00
12207;BME280;6166;42.806;23.408;2022-07-23T07:31:53;137713.44;;;12.94;0.00
12207;BME280;6166;42.806;23.408;2022-07-23T07:34:20;137575.03;;;12.70;0.00
12207;BME280;6166;42.806;23.408;2022-07-23T07:36:47;137637.53;;;12.81;0.00
12207;BME280;6166;42.806;23.408;2022-07-23T07:39:15;137686.56;;;12.90;0.00
12207;BME280;6166;42.806;23.408;2022-07-23T07:41:42;137498.84;;;12.55;0.00
12207;BME280;6166;42.806;23.408;2022-07-23T07:44:08;137332.72;;;12.23;0.00
12207;BME280;6166;42.806;23.408;2022-07-23T07:46:35;137383.66;;;12.34;0.00
12207;BME280;6166;42.806;23.408;2022-07-23T07:49:03;137237.38;;;12.04;0.00
12207;BME280;6166;42.806;23.408;2022-07-23T07:51:30;137169.91;;;11.90;0.00
12207;BME280;6166;42.806;23.408;2022-07-23T07:53:58;137004.06;;;11.55;100.00
12207;BME280;6166;42.806;23.408;2022-07-23T07:56:25;136820.84;;;11.12;100.00
12207;BME280;6166;42.806;23.408;2022-07-23T07:58:52;136708.31;;;10.84;100.00
12207;BME280;6166;42.806;23.408;2022-07-23T08:01:19;136807.28;;;11.12;100.00
12207;BME280;6166;42.806;23.408;2022-07-23T08:03:46;136745.41;;;10.93;100.00
12207;BME280;6166;42.806;23.408;2022-07-23T08:06:14;136763.75;;;10.98;100.00
12207;BME280;6166;42.806;23.408;2022-07-23T08:08:41;136703.56;;;10.83;100.00
12207;BME280;6166;42.806;23.408;2022-07-23T08:11:08;136552.09;;;10.43;100.00
12207;BME280;6166;42.806;23.408;2022-07-23T08:13:34;136503.06;;;10.28;100.00
12207;BME280;6166;42.806;23.408;2022-07-23T08:16:01;136408.78;;;10.01;68.67
12207;BME280;6166;42.806;23.408;2022-07-23T08:18:28;136327.22;;;9.75;4.36
12207;BME280;6166;42.806;23.408;2022-07-23T08:20:55;136224.59;;;9.38;0.00
12207;BME280;6166;42.806;23.408;2022-07-23T08:23:23;136191.50;;;9.29;0.00
12207;BME280;6166;42.806;23.408;2022-07-23T08:25:50;136191.50;;;9.25;0.00
12207;BME280;6166;42.806;23.408;2022-07-23T08:28:17;136149.25;;;9.10;0.00
12207;BME280;6166;42.806;23.408;2022-07-23T08:30:45;136100.00;;;8.90;0.00
12207;BME280;6166;42.806;23.408;2022-07-23T08:33:14;136181.81;;;9.25;0.00
12207;BME280;6166;42.806;23.408;2022-07-23T08:35:44;136145.84;;;9.11;0.00
12207;BME280;6166;42.806;23.408;2022-07-23T08:38:13;136047.06;;;8.66;0.00
12207;BME280;6166;42.806;23.408;2022-07-23T08:40:43;135988.84;;;8.36;0.00
12207;BME280;6166;42.806;23.408;2022-07-23T08:43:14;135974.94;;;8.47;0.00
12207;BME280;6166;42.806;23.408;2022-07-23T08:45:42;135882.69;;;7.73;0.00
12207;BME280;6166;42.806;23.408;2022-07-23T08:48:12;135899.75;;;7.89;0.00
12207;BME280;6166;42.806;23.408;2022-07-23T08:50:42;135880.44;;;7.90;0.00
12207;BME280;6166;42.806;23.408;2022-07-23T08:53:10;135852.34;;;7.51;100.00
12207;BME280;6166;42.806;23.408;2022-07-23T08:55:36;135846.28;;;7.47;100.00
12207;BME280;6166;42.806;23.408;2022-07-23T08:58:05;135927.81;;;8.06;0.00
12207;BME280;6166;42.806;23.408;2022-07-23T09:00:32;135849.88;;;7.54;100.00
12207;BME280;6166;42.806;23.408;2022-07-23T09:02:59;135828.28;;;7.35;100.00
12207;BME280;6166;42.806;23.408;2022-07-23T09:05:25;135818.47;;;7.24;100.00
12207;BME280;6166;42.806;23.408;2022-07-23T09:08:07;135827.56;;;7.39;100.00
12207;BME280;6166;42.806;23.408;2022-07-23T09:10:52;135808.81;;;7.17;100.00
12207;BME280;6166;42.806;23.408;2022-07-23T09:13:32;135797.31;;;7.03;100.00
12207;BME280;6166;42.806;23.408;2022-07-23T09:16:01;135771.44;;;6.75;0.00
12207;BME280;6166;42.806;23.408;2022-07-23T09:18:30;135760.28;;;6.57;0.00
12207;BME280;6166;42.806;23.408;2022-07-23T09:21:08;135763.63;;;6.52;0.00
12207;BME280;6166;42.806;23.408;2022-07-23T09:23:40;135768.19;;;6.69;0.00
12207;BME280;6166;42.806;23.408;2022-07-23T09:26:29;135773.59;;;6.73;0.00
12207;BME280;6166;42.806;23.408;2022-07-23T09:29:03;135765.78;;;6.58;0.00
12207;BME280;6166;42.806;23.408;2022-07-23T09:31:32;135758.72;;;6.39;0.00
12207;BME280;6166;42.806;23.408;2022-07-23T09:34:07;135762.94;;;6.61;0.00
12207;BME280;6166;42.806;23.408;2022-07-23T09:36:33;135753.41;;;6.06;100.00
12207;BME280;6166;42.806;23.408;2022-07-23T09:39:00;135745.63;;;5.92;100.00
12207;BME280;6166;42.806;23.408;2022-07-23T09:41:34;135749.88;;;5.76;100.00
12207;BME280;6166;42.806;23.408;2022-07-23T09:44:09;135752.88;;;5.53;100.00
12207;BME280;6166;42.806;23.408;2022-07-23T09:46:36;135748.63;;;5.47;100.00
12207;BME280;6166;42.806;23.408;2022-07-23T09:49:12;135765.56;;;5.19;100.00
12207;BME280;6166;42.806;23.408;2022-07-23T09:51:53;135754.28;;;5.40;100.00
12207;BME280;6166;42.806;23.408;2022-07-23T09:54:32;135744.56;;;5.58;100.00
12207;BME280;6166;42.806;23.408;2022-07-23T09:57:02;135732.88;;;5.64;100.00
12207;BME280;6166;42.806;23.408;2022-07-23T09:59:33;135760.44;;;5.16;100.00
12207;BME280;6166;42.806;23.408;2022-07-23T10:02:01;135722.53;;;5.29;100.00
12207;BME280;6166;42.806;23.408;2022-07-23T10:04:29;135762.81;;;5.09;100.00
12207;BME280;6166;42.806;23.408;2022-07-23T10:06:58;135749.22;;;5.24;100.00
12207;BME280;6166;42.806;23.408;2022-07-23T10:09:35;135750.88;;;5.24;100.00
12207;BME280;6166;42.806;23.408;2022-07-23T10:12:03;135786.03;;;4.76;100.00
12207;BME280;6166;42.806;23.408;2022-07-23T10:14:48;135785.31;;;4.73;100.00
12207;BME280;6166;42.806;23.408;2022-07-23T10:17:16;135796.06;;;4.61;100.00
12207;BME280;6166;42.806;23.408;2022-07-23T10:19:43;135791.56;;;4.60;100.00
12207;BME280;6166;42.806;23.408;2022-07-23T10:22:12;135776.91;;;4.79;100.00
12207;BME280;6166;42.806;23.408;2022-07-23T10:25:03;135805.50;;;4.51;100.00
12207;BME280;6166;42.806;23.408;2022-07-23T10:27:59;135780.06;;;4.68;100.00
12207;BME280;6166;42.806;23.408;2022-07-23T10:30:39;135790.16;;;4.57;100.00
12207;BME280;6166;42.806;23.408;2022-07-23T10:33:29;135788.25;;;4.60;100.00
12207;BME280;6166;42.806;23.408;2022-07-23T10:36:03;135873.97;;;3.95;0.00
12207;BME280;6166;42.806;23.408;2022-07-23T10:38:39;135871.69;;;3.96;0.00
12207;BME280;6166;42.806;23.408;2022-07-23T10:41:09;135795.72;;;4.49;100.00
12207;BME280;6166;42.806;23.408;2022-07-23T10:43:36;135779.31;;;4.64;100.00
12207;BME280;6166;42.806;23.408;2022-07-23T10:46:24;135781.38;;;4.49;100.00
12207;BME280;6166;42.806;23.408;2022-07-23T10:49:22;135785.56;;;4.54;100.00
12207;BME280;6166;42.806;23.408;2022-07-23T10:52:16;135834.28;;;4.15;32.43
12207;BME280;6166;42.806;23.408;2022-07-23T10:54:45;135839.44;;;4.05;12.49
12207;BME280;6166;42.806;23.408;2022-07-23T10:57:12;135921.00;;;3.59;0.00
12207;BME280;6166;42.806;23.408;2022-07-23T11:00:20;135859.41;;;3.93;0.00
12207;BME280;6166;42.806;23.408;2022-07-23T11:02:49;135900.31;;;3.70;0.00
12207;BME280;6166;42.806;23.408;2022-07-23T11:05:18;135938.19;;;3.47;0.00
12207;BME280;6166;42.806;23.408;2022-07-23T11:08:18;136021.78;;;3.06;0.00
12207;BME280;6166;42.806;23.408;2022-07-23T11:10:48;135931.16;;;3.46;0.00
12207;BME280;6166;42.806;23.408;2022-07-23T11:13:34;136008.34;;;3.11;0.00
12207;BME280;6166;42.806;23.408;2022-07-23T11:16:07;136052.06;;;2.93;0.00
12207;BME280;6166;42.806;23.408;2022-07-23T11:18:58;135998.28;;;3.13;0.00
12207;BME280;6166;42.806;23.408;2022-07-23T11:21:42;136016.75;;;3.06;0.00
12207;BME280;6166;42.806;23.408;2022-07-23T11:24:11;136064.03;;;2.83;0.00
12207;BME280;6166;42.806;23.408;2022-07-23T11:26:50;136093.03;;;2.74;0.00
12207;BME280;6166;42.806;23.408;2022-07-23T11:29:37;136158.72;;;2.49;0.00
12207;BME280;6166;42.806;23.408;2022-07-23T11:32:07;136064.81;;;2.84;0.00
12207;BME280;6166;42.806;23.408;2022-07-23T11:34:39;136104.00;;;2.68;0.00
12207;BME280;6166;42.806;23.408;2022-07-23T11:37:08;136151.09;;;2.48;0.00
12207;BME280;6166;42.806;23.408;2022-07-23T11:39:36;135998.44;;;3.10;0.00
12207;BME280;6166;42.806;23.408;2022-07-23T11:42:04;136120.97;;;2.59;0.00
12207;BME280;6166;42.806;23.408;2022-07-23T11:44:33;136067.66;;;2.79;0.00
12207;BME280;6166;42.806;23.408;2022-07-23T11:47:02;136157.31;;;2.47;0.00
12207;BME280;6166;42.806;23.408;2022-07-23T11:49:30;136227.94;;;2.19;0.00
12207;BME280;6166;42.806;23.408;2022-07-23T11:52:06;136210.53;;;2.27;0.00
12207;BME280;6166;42.806;23.408;2022-07-23T11:54:34;136105.16;;;2.63;0.00
12207;BME280;6166;42.806;23.408;2022-07-23T11:57:02;136091.63;;;2.68;0.00
12207;BME280;6166;42.806;23.408;2022-07-23T11:59:31;136154.72;;;2.45;0.00
12207;BME280;6166;42.806;23.408;2022-07-23T12:02:00;136228.34;;;2.19;0.00
12207;BME280;6166;42.806;23.408;2022-07-23T12:04:37;136314.53;;;1.90;0.00
12207;BME280;6166;42.806;23.408;2022-07-23T12:07:31;136365.53;;;1.75;100.00
12207;BME280;6166;42.806;23.408;2022-07-23T12:10:00;136370.31;;;1.73;100.00
12207;BME280;6166;42.806;23.408;2022-07-23T12:12:27;136319.91;;;1.88;0.00
12207;BME280;6166;42.806;23.408;2022-07-23T12:15:01;136163.28;;;2.39;0.00
12207;BME280;6166;42.806;23.408;2022-07-23T12:17:30;136090.53;;;2.57;0.00
12207;BME280;6166;42.806;23.408;2022-07-23T12:19:57;136363.31;;;1.74;100.00
12207;BME280;6166;42.806;23.408;2022-07-23T12:22:32;136400.19;;;1.63;100.00
12207;BME280;6166;42.806;23.408;2022-07-23T12:25:04;136378.94;;;1.67;100.00
12207;BME280;6166;42.806;23.408;2022-07-23T12:27:31;136510.00;;;1.30;100.00
12207;BME280;6166;42.806;23.408;2022-07-23T12:29:58;136571.28;;;1.13;100.00
12207;BME280;6166;42.806;23.408;2022-07-23T12:32:26;136597.41;;;1.06;100.00
12207;BME280;6166;42.806;23.408;2022-07-23T12:35:04;136612.72;;;1.01;100.00
12207;BME280;6166;42.806;23.408;2022-07-23T12:37:33;136583.50;;;1.09;100.00
12207;BME280;6166;42.806;23.408;2022-07-23T12:40:20;136318.19;;;1.85;0.00
12207;BME280;6166;42.806;23.408;2022-07-23T12:42:48;136248.00;;;2.07;0.00
12207;BME280;6166;42.806;23.408;2022-07-23T12:45:16;136473.13;;;1.37;100.00
12207;BME280;6166;42.806;23.408;2022-07-23T12:47:57;136456.69;;;1.42;100.00
12207;BME280;6166;42.806;23.408;2022-07-23T12:50:44;136449.66;;;1.44;100.00
12207;BME280;6166;42.806;23.408;2022-07-23T12:53:27;136357.22;;;1.70;100.00
12207;BME280;6166;42.806;23.408;2022-07-23T12:56:04;136472.41;;;1.38;100.00
12207;BME280;6166;42.806;23.408;2022-07-23T12:58:43;136335.72;;;1.69;100.00
12207;BME280;6166;42.806;23.408;2022-07-23T13:01:22;136621.09;;;0.95;100.00
12207;BME280;6166;42.806;23.408;2022-07-23T13:03:56;136761.34;;;0.60;100.00
12207;BME280;6166;42.806;23.408;2022-07-23T13:06:23;136833.28;;;0.42;100.00
12207;BME280;6166;42.806;23.408;2022-07-23T13:08:50;136689.69;;;0.77;100.00
12207;BME280;6166;42.806;23.408;2022-07-23T13:11:18;136751.47;;;0.61;100.00
12207;BME280;6166;42.806;23.408;2022-07-23T13:13:45;136780.22;;;0.53;100.00
12207;BME280;6166;42.806;23.408;2022-07-23T13:16:12;136942.56;;;0.16;100.00
12207;BME280;6166;42.806;23.408;2022-07-23T13:18:39;136952.56;;;0.14;100.00